sensor_id;sensor_type;location;lat;lon;timestamp;noise_LAeq;noise_LA_min;noise_LA_max;noise_LA01;noise_LA95
66888;Laerm;53798;51.680;5.976;2022-12-10T00:01:42;56.21;34.58;74.73;;
66888;Laerm;53798;51.680;5.976;2022-12-10T00:04:13;56.91;33.96;75.22;;
66888;Laerm;53798;51.680;5.976;2022-12-10T00:06:41;38.67;33.50;52.71;;
66888;Laerm;53798;51.680;5.976;2022-12-10T00:09:16;61.71;34.04;81.90;;
66888;Laerm;53798;51.680;5.976;2022-12-10T00:11:44;60.32;34.08;76.68;;
66888;Laerm;53798;51.680;5.976;2022-12-10T00:14:13;46.38;34.43;66.72;;
66888;Laerm;53798;51.680;5.976;2022-12-10T00:16:41;37.85;34.60;44.70;;
66888;Laerm;53798;51.680;5.976;2022-12-10T00:19:08;59.81;35.36;76.46;;
66888;Laerm;53798;51.680;5.976;2022-12-10T00:21:36;62.14;34.55;81.62;;
66888;Laerm;53798;51.680;5.976;2022-12-10T00:24:04;66.31;34.77;83.85;;
66888;Laerm;53798;51.680;5.976;2022-12-10T00:26:36;63.51;33.89;79.95;;
66888;Laerm;53798;51.680;5.976;2022-12-10T00:29:07;38.48;34.37;57.25;;
66888;Laerm;53798;51.680;5.976;2022-12-10T00:31:38;62.75;34.52;81.80;;
66888;Laerm;53798;51.680;5.976;2022-12-10T00:34:09;38.21;35.01;49.11;;
66888;Laerm;53798;51.680;5.976;2022-12-10T00:36:46;38.41;34.39;47.45;;
66888;Laerm;53798;51.680;5.976;2022-12-10T00:39:20;64.58;34.67;80.56;;
66888;Laerm;53798;51.680;5.976;2022-12-10T00:41:48;60.91;35.29;78.03;;
66888;Laerm;53798;51.680;5.976;2022-12-10T00:44:16;37.62;34.52;47.97;;
66888;Laerm;53798;51.680;5.976;2022-12-10T00:46:44;38.42;34.71;51.64;;
66888;Laerm;53798;51.680;5.976;2022-12-10T00:49:12;38.36;34.56;47.95;;
66888;Laerm;53798;51.680;5.976;2022-12-10T00:51:39;38.70;34.38;51.69;;
66888;Laerm;53798;51.680;5.976;2022-12-10T00:54:07;39.25;35.62;54.08;;
66888;Laerm;53798;51.680;5.976;2022-12-10T00:56:34;55.59;34.47;71.91;;
66888;Laerm;53798;51.680;5.976;2022-12-10T00:59:03;51.80;34.38;66.97;;
66888;Laerm;53798;51.680;5.976;2022-12-10T01:01:35;62.77;34.01;82.99;;
66888;Laerm;53798;51.680;5.976;2022-12-10T01:04:08;36.77;33.04;44.66;;
66888;Laerm;53798;51.680;5.976;2022-12-10T01:06:50;54.61;33.13;71.94;;
66888;Laerm;53798;51.680;5.976;2022-12-10T01:09:25;35.04;32.67;39.51;;
66888;Laerm;53798;51.680;5.976;2022-12-10T01:11:55;35.10;32.40;39.57;;
66888;Laerm;53798;51.680;5.976;2022-12-10T01:14:28;35.59;32.59;43.11;;
66888;Laerm;53798;51.680;5.976;2022-12-10T01:17:03;39.66;32.52;60.64;;
66888;Laerm;53798;51.680;5.976;2022-12-10T01:19:31;58.82;33.88;75.68;;
66888;Laerm;53798;51.680;5.976;2022-12-10T01:22:02;41.28;33.29;64.49;;
66888;Laerm;53798;51.680;5.976;2022-12-10T01:24:30;36.14;32.84;45.82;;
66888;Laerm;53798;51.680;5.976;2022-12-10T01:26:58;37.26;33.73;50.87;;
66888;Laerm;53798;51.680;5.976;2022-12-10T01:29:26;36.53;33.11;56.77;;
66888;Laerm;53798;51.680;5.976;2022-12-10T01:31:56;35.84;32.51;43.49;;
66888;Laerm;53798;51.680;5.976;2022-12-10T01:34:25;38.01;33.16;49.22;;
66888;Laerm;53798;51.680;5.976;2022-12-10T01:36:56;35.62;33.28;44.20;;
66888;Laerm;53798;51.680;5.976;2022-12-10T01:39:23;35.74;32.74;40.60;;
66888;Laerm;53798;51.680;5.976;2022-12-10T01:41:58;36.36;33.49;49.14;;
66888;Laerm;53798;51.680;5.976;2022-12-10T01:46:59;65.80;34.64;84.63;;
66888;Laerm;53798;51.680;5.976;2022-12-10T01:49:38;60.67;35.22;81.01;;
66888;Laerm;53798;51.680;5.976;2022-12-10T01:52:10;37.57;34.33;58.38;;
66888;Laerm;53798;51.680;5.976;2022-12-10T01:54:42;64.15;34.90;82.50;;
66888;Laerm;53798;51.680;5.976;2022-12-10T01:57:28;38.02;35.36;41.59;;
66888;Laerm;53798;51.680;5.976;2022-12-10T02:00:02;37.81;34.78;43.05;;
66888;Laerm;53798;51.680;5.976;2022-12-10T02:02:59;38.89;34.81;61.61;;
66888;Laerm;53798;51.680;5.976;2022-12-10T02:05:47;37.38;34.69;41.38;;
66888;Laerm;53798;51.680;5.976;2022-12-10T02:08:30;64.94;35.28;85.31;;
66888;Laerm;53798;51.680;5.976;2022-12-10T02:11:20;63.53;35.16;84.61;;
66888;Laerm;53798;51.680;5.976;2022-12-10T02:14:53;37.67;34.95;42.56;;
66888;Laerm;53798;51.680;5.976;2022-12-10T02:17:11;38.59;35.04;46.80;;
66888;Laerm;53798;51.680;5.976;2022-12-10T02:20:19;62.48;35.58;83.04;;
66888;Laerm;53798;51.680;5.976;2022-12-10T02:23:03;37.42;34.54;41.58;;
66888;Laerm;53798;51.680;5.976;2022-12-10T02:28:40;38.76;34.76;51.40;;
66888;Laerm;53798;51.680;5.976;2022-12-10T02:31:17;37.59;35.08;43.02;;
66888;Laerm;53798;51.680;5.976;2022-12-10T02:33:52;41.50;34.26;66.44;;
66888;Laerm;53798;51.680;5.976;2022-12-10T02:36:25;36.72;33.99;47.41;;
66888;Laerm;53798;51.680;5.976;2022-12-10T02:38:56;37.45;34.60;44.53;;
66888;Laerm;53798;51.680;5.976;2022-12-10T02:41:34;64.38;34.68;86.16;;
66888;Laerm;53798;51.680;5.976;2022-12-10T02:44:09;37.48;33.91;51.04;;
66888;Laerm;53798;51.680;5.976;2022-12-10T02:46:40;37.49;34.23;46.08;;
66888;Laerm;53798;51.680;5.976;2022-12-10T02:49:14;37.87;35.10;41.80;;
66888;Laerm;53798;51.680;5.976;2022-12-10T02:51:43;36.60;33.91;40.55;;
66888;Laerm;53798;51.680;5.976;2022-12-10T02:54:36;37.24;33.97;51.02;;
66888;Laerm;53798;51.680;5.976;2022-12-10T02:57:27;37.37;33.86;46.90;;
66888;Laerm;53798;51.680;5.976;2022-12-10T03:00:12;37.75;34.23;45.44;;
66888;Laerm;53798;51.680;5.976;2022-12-10T03:05:59;37.02;34.12;44.76;;
66888;Laerm;53798;51.680;5.976;2022-12-10T03:08:59;36.73;33.87;43.33;;
66888;Laerm;53798;51.680;5.976;2022-12-10T03:11:28;37.50;33.53;47.50;;
66888;Laerm;53798;51.680;5.976;2022-12-10T03:14:19;62.80;33.05;82.86;;
66888;Laerm;53798;51.680;5.976;2022-12-10T03:16:57;35.37;32.16;42.13;;
66888;Laerm;53798;51.680;5.976;2022-12-10T03:19:47;35.97;32.92;45.40;;
66888;Laerm;53798;51.680;5.976;2022-12-10T03:22:20;36.90;33.11;48.64;;
66888;Laerm;53798;51.680;5.976;2022-12-10T03:24:48;57.72;33.48;76.01;;
66888;Laerm;53798;51.680;5.976;2022-12-10T03:27:20;35.50;32.57;40.88;;
66888;Laerm;53798;51.680;5.976;2022-12-10T03:29:52;36.34;33.42;44.33;;
66888;Laerm;53798;51.680;5.976;2022-12-10T03:32:26;64.99;32.68;86.47;;
66888;Laerm;53798;51.680;5.976;2022-12-10T03:34:58;47.92;34.20;67.74;;
66888;Laerm;53798;51.680;5.976;2022-12-10T03:37:28;37.90;33.84;50.65;;
66888;Laerm;53798;51.680;5.976;2022-12-10T03:39:58;62.34;34.34;81.74;;
66888;Laerm;53798;51.680;5.976;2022-12-10T03:42:25;46.47;33.83;64.99;;
66888;Laerm;53798;51.680;5.976;2022-12-10T03:44:53;59.32;33.79;76.98;;
66888;Laerm;53798;51.680;5.976;2022-12-10T03:47:20;48.03;35.09;67.81;;
66888;Laerm;53798;51.680;5.976;2022-12-10T03:49:47;37.88;35.30;42.42;;
66888;Laerm;53798;51.680;5.976;2022-12-10T03:52:15;38.09;34.70;45.81;;
66888;Laerm;53798;51.680;5.976;2022-12-10T03:54:42;58.72;34.96;80.88;;
66888;Laerm;53798;51.680;5.976;2022-12-10T03:57:09;56.72;34.18;80.42;;
66888;Laerm;53798;51.680;5.976;2022-12-10T03:59:36;37.47;34.43;45.34;;
66888;Laerm;53798;51.680;5.976;2022-12-10T04:02:03;37.69;34.06;46.02;;
66888;Laerm;53798;51.680;5.976;2022-12-10T04:04:31;37.66;34.93;42.20;;
66888;Laerm;53798;51.680;5.976;2022-12-10T04:06:58;63.25;35.92;81.03;;
66888;Laerm;53798;51.680;5.976;2022-12-10T04:09:25;63.80;37.43;80.00;;
66888;Laerm;53798;51.680;5.976;2022-12-10T04:11:57;40.50;35.14;52.98;;
66888;Laerm;53798;51.680;5.976;2022-12-10T04:14:26;61.63;35.77;78.60;;
66888;Laerm;53798;51.680;5.976;2022-12-10T04:17:12;59.95;35.23;80.74;;
66888;Laerm;53798;51.680;5.976;2022-12-10T04:19:39;39.26;34.25;50.73;;
66888;Laerm;53798;51.680;5.976;2022-12-10T04:22:08;66.86;35.77;84.06;;
66888;Laerm;53798;51.680;5.976;2022-12-10T04:24:53;61.33;34.57;78.72;;
66888;Laerm;53798;51.680;5.976;2022-12-10T04:27:40;57.55;34.41;74.89;;
66888;Laerm;53798;51.680;5.976;2022-12-10T04:30:09;60.78;37.15;78.01;;
66888;Laerm;53798;51.680;5.976;2022-12-10T04:32:38;63.99;34.80;79.79;;
66888;Laerm;53798;51.680;5.976;2022-12-10T04:35:06;63.94;34.84;78.95;;
66888;Laerm;53798;51.680;5.976;2022-12-10T04:37:34;37.55;34.35;43.15;;
66888;Laerm;53798;51.680;5.976;2022-12-10T04:40:03;65.80;37.05;79.05;;
66888;Laerm;53798;51.680;5.976;2022-12-10T04:42:30;67.91;36.80;82.39;;
66888;Laerm;53798;51.680;5.976;2022-12-10T04:44:58;67.22;35.93;84.83;;
66888;Laerm;53798;51.680;5.976;2022-12-10T04:47:25;64.68;38.48;78.78;;
66888;Laerm;53798;51.680;5.976;2022-12-10T04:49:52;66.97;37.96;79.86;;
66888;Laerm;53798;51.680;5.976;2022-12-10T04:52:21;59.09;35.94;77.26;;
66888;Laerm;53798;51.680;5.976;2022-12-10T04:54:49;61.38;34.32;77.03;;
66888;Laerm;53798;51.680;5.976;2022-12-10T04:57:16;63.65;33.35;82.96;;
66888;Laerm;53798;51.680;5.976;2022-12-10T04:59:44;54.87;34.74;71.15;;
66888;Laerm;53798;51.680;5.976;2022-12-10T05:02:11;65.79;35.20;79.02;;
66888;Laerm;53798;51.680;5.976;2022-12-10T05:04:38;68.81;36.67;82.65;;
66888;Laerm;53798;51.680;5.976;2022-12-10T05:07:05;68.68;35.96;82.37;;
66888;Laerm;53798;51.680;5.976;2022-12-10T05:09:32;66.76;35.01;83.99;;
66888;Laerm;53798;51.680;5.976;2022-12-10T05:11:59;62.52;34.33;79.43;;
66888;Laerm;53798;51.680;5.976;2022-12-10T05:14:26;38.64;34.52;52.15;;
66888;Laerm;53798;51.680;5.976;2022-12-10T05:16:53;62.39;34.95;76.19;;
66888;Laerm;53798;51.680;5.976;2022-12-10T05:19:20;64.62;35.50;79.97;;
66888;Laerm;53798;51.680;5.976;2022-12-10T05:21:49;38.54;34.48;47.79;;
66888;Laerm;53798;51.680;5.976;2022-12-10T05:24:35;59.60;34.52;78.23;;
66888;Laerm;53798;51.680;5.976;2022-12-10T05:27:03;60.87;33.56;78.58;;
66888;Laerm;53798;51.680;5.976;2022-12-10T05:29:32;38.19;34.19;55.32;;
66888;Laerm;53798;51.680;5.976;2022-12-10T05:32:03;56.30;34.76;74.76;;
66888;Laerm;53798;51.680;5.976;2022-12-10T05:34:31;63.71;35.50;80.27;;
66888;Laerm;53798;51.680;5.976;2022-12-10T05:36:58;65.48;35.21;81.65;;
66888;Laerm;53798;51.680;5.976;2022-12-10T05:39:26;61.74;37.07;78.90;;
66888;Laerm;53798;51.680;5.976;2022-12-10T05:41:53;41.52;36.89;56.79;;
66888;Laerm;53798;51.680;5.976;2022-12-10T05:44:20;64.67;36.44;81.67;;
66888;Laerm;53798;51.680;5.976;2022-12-10T05:46:47;67.06;37.90;83.42;;
66888;Laerm;53798;51.680;5.976;2022-12-10T05:49:14;60.69;35.31;78.46;;
66888;Laerm;53798;51.680;5.976;2022-12-10T05:51:41;70.18;35.48;83.89;;
66888;Laerm;53798;51.680;5.976;2022-12-10T05:54:09;61.31;34.98;77.63;;
66888;Laerm;53798;51.680;5.976;2022-12-10T05:56:37;63.19;35.70;80.35;;
66888;Laerm;53798;51.680;5.976;2022-12-10T05:59:05;67.63;35.52;85.65;;
66888;Laerm;53798;51.680;5.976;2022-12-10T06:01:40;57.61;35.68;76.18;;
66888;Laerm;53798;51.680;5.976;2022-12-10T06:04:08;58.80;35.31;78.34;;
66888;Laerm;53798;51.680;5.976;2022-12-10T06:06:38;38.58;34.91;52.69;;
66888;Laerm;53798;51.680;5.976;2022-12-10T06:09:07;55.27;34.69;73.19;;
66888;Laerm;53798;51.680;5.976;2022-12-10T06:11:38;38.42;34.60;55.94;;
66888;Laerm;53798;51.680;5.976;2022-12-10T06:14:05;63.64;35.14;79.68;;
66888;Laerm;53798;51.680;5.976;2022-12-10T06:16:33;59.00;35.18;76.59;;
66888;Laerm;53798;51.680;5.976;2022-12-10T06:19:00;37.16;34.40;45.63;;
66888;Laerm;53798;51.680;5.976;2022-12-10T06:21:27;60.03;35.26;75.58;;
66888;Laerm;53798;51.680;5.976;2022-12-10T06:23:54;65.62;41.04;79.98;;
66888;Laerm;53798;51.680;5.976;2022-12-10T06:26:25;48.04;34.23;70.36;;
66888;Laerm;53798;51.680;5.976;2022-12-10T06:28:53;62.11;34.36;78.80;;
66888;Laerm;53798;51.680;5.976;2022-12-10T06:31:21;63.95;34.56;81.38;;
66888;Laerm;53798;51.680;5.976;2022-12-10T06:33:50;61.75;34.90;80.51;;
66888;Laerm;53798;51.680;5.976;2022-12-10T06:36:19;54.37;34.95;70.99;;
66888;Laerm;53798;51.680;5.976;2022-12-10T06:38:47;58.76;34.20;76.06;;
66888;Laerm;53798;51.680;5.976;2022-12-10T06:41:18;37.86;33.91;51.34;;
66888;Laerm;53798;51.680;5.976;2022-12-10T06:43:48;63.22;37.42;78.25;;
66888;Laerm;53798;51.680;5.976;2022-12-10T06:46:18;65.26;35.55;82.91;;
66888;Laerm;53798;51.680;5.976;2022-12-10T06:48:48;60.27;36.07;74.18;;
66888;Laerm;53798;51.680;5.976;2022-12-10T06:51:17;65.01;35.90;83.41;;
66888;Laerm;53798;51.680;5.976;2022-12-10T06:53:45;64.98;37.90;81.66;;
66888;Laerm;53798;51.680;5.976;2022-12-10T06:56:17;66.24;37.26;80.12;;
66888;Laerm;53798;51.680;5.976;2022-12-10T06:58:46;54.97;36.62;72.16;;
66888;Laerm;53798;51.680;5.976;2022-12-10T07:01:18;67.60;37.03;80.23;;
66888;Laerm;53798;51.680;5.976;2022-12-10T07:03:49;67.87;36.73;81.48;;
66888;Laerm;53798;51.680;5.976;2022-12-10T07:06:18;61.10;36.57;77.41;;
66888;Laerm;53798;51.680;5.976;2022-12-10T07:08:46;71.23;40.04;86.62;;
66888;Laerm;53798;51.680;5.976;2022-12-10T07:11:18;67.57;38.00;81.78;;
66888;Laerm;53798;51.680;5.976;2022-12-10T07:13:46;68.02;39.05;83.65;;
66888;Laerm;53798;51.680;5.976;2022-12-10T07:16:15;68.49;41.15;80.40;;
66888;Laerm;53798;51.680;5.976;2022-12-10T07:18:43;63.37;41.95;76.81;;
66888;Laerm;53798;51.680;5.976;2022-12-10T07:23:47;68.83;43.52;82.57;;
66888;Laerm;53798;51.680;5.976;2022-12-10T07:26:14;67.31;40.90;80.48;;
66888;Laerm;53798;51.680;5.976;2022-12-10T07:28:42;68.26;37.47;81.32;;
66888;Laerm;53798;51.680;5.976;2022-12-10T07:31:21;60.54;35.32;75.58;;
66888;Laerm;53798;51.680;5.976;2022-12-10T07:33:50;68.82;37.22;83.83;;
66888;Laerm;53798;51.680;5.976;2022-12-10T07:36:21;65.84;37.99;82.18;;
66888;Laerm;53798;51.680;5.976;2022-12-10T07:38:51;66.65;37.27;83.69;;
66888;Laerm;53798;51.680;5.976;2022-12-10T07:41:19;67.94;37.70;79.74;;
66888;Laerm;53798;51.680;5.976;2022-12-10T07:43:48;64.48;37.11;78.69;;
66888;Laerm;53798;51.680;5.976;2022-12-10T07:46:23;67.74;44.20;78.37;;
66888;Laerm;53798;51.680;5.976;2022-12-10T07:48:51;65.96;39.17;79.96;;
66888;Laerm;53798;51.680;5.976;2022-12-10T07:51:20;70.11;38.91;84.05;;
66888;Laerm;53798;51.680;5.976;2022-12-10T07:53:52;72.11;39.50;84.93;;
66888;Laerm;53798;51.680;5.976;2022-12-10T07:56:21;70.23;49.95;80.65;;
66888;Laerm;53798;51.680;5.976;2022-12-10T07:58:49;66.14;37.91;81.92;;
66888;Laerm;53798;51.680;5.976;2022-12-10T08:01:21;68.06;38.75;78.80;;
66888;Laerm;53798;51.680;5.976;2022-12-10T08:03:51;70.50;49.20;83.95;;
66888;Laerm;53798;51.680;5.976;2022-12-10T08:06:20;70.47;37.06;83.31;;
66888;Laerm;53798;51.680;5.976;2022-12-10T08:08:48;67.53;38.22;80.31;;
66888;Laerm;53798;51.680;5.976;2022-12-10T08:11:19;67.43;38.10;81.16;;
66888;Laerm;53798;51.680;5.976;2022-12-10T08:13:48;64.09;38.86;78.16;;
66888;Laerm;53798;51.680;5.976;2022-12-10T08:16:25;69.18;38.09;83.75;;
66888;Laerm;53798;51.680;5.976;2022-12-10T08:18:58;70.29;45.02;84.79;;
66888;Laerm;53798;51.680;5.976;2022-12-10T08:21:29;70.21;47.03;81.44;;
66888;Laerm;53798;51.680;5.976;2022-12-10T08:24:00;65.96;36.83;79.61;;
66888;Laerm;53798;51.680;5.976;2022-12-10T08:26:31;69.11;45.84;82.17;;
66888;Laerm;53798;51.680;5.976;2022-12-10T08:28:59;69.43;42.57;85.78;;
66888;Laerm;53798;51.680;5.976;2022-12-10T08:31:27;70.08;40.31;83.91;;
66888;Laerm;53798;51.680;5.976;2022-12-10T08:34:12;69.91;39.02;85.51;;
66888;Laerm;53798;51.680;5.976;2022-12-10T08:36:42;65.47;37.15;77.72;;
66888;Laerm;53798;51.680;5.976;2022-12-10T08:39:10;67.71;36.86;82.09;;
66888;Laerm;53798;51.680;5.976;2022-12-10T08:41:44;69.25;38.82;83.05;;
66888;Laerm;53798;51.680;5.976;2022-12-10T08:44:12;68.64;37.74;84.64;;
66888;Laerm;53798;51.680;5.976;2022-12-10T08:46:40;67.97;45.53;80.02;;
66888;Laerm;53798;51.680;5.976;2022-12-10T08:49:07;69.25;37.96;82.55;;
66888;Laerm;53798;51.680;5.976;2022-12-10T08:51:36;69.27;37.42;83.84;;
66888;Laerm;53798;51.680;5.976;2022-12-10T08:54:03;69.28;43.33;81.42;;
66888;Laerm;53798;51.680;5.976;2022-12-10T08:56:30;68.64;41.75;80.66;;
66888;Laerm;53798;51.680;5.976;2022-12-10T08:58:57;68.31;38.03;84.35;;
66888;Laerm;53798;51.680;5.976;2022-12-10T09:01:25;71.37;49.16;83.24;;
66888;Laerm;53798;51.680;5.976;2022-12-10T09:03:52;71.73;46.88;82.16;;
66888;Laerm;53798;51.680;5.976;2022-12-10T09:06:22;71.69;40.88;83.36;;
66888;Laerm;53798;51.680;5.976;2022-12-10T09:08:54;68.81;38.29;79.30;;
66888;Laerm;53798;51.680;5.976;2022-12-10T09:11:26;68.93;38.78;82.70;;
66888;Laerm;53798;51.680;5.976;2022-12-10T09:13:54;68.17;45.22;78.59;;
66888;Laerm;53798;51.680;5.976;2022-12-10T09:16:32;70.62;46.07;81.98;;
66888;Laerm;53798;51.680;5.976;2022-12-10T09:19:01;72.32;43.74;83.59;;
66888;Laerm;53798;51.680;5.976;2022-12-10T09:21:29;70.08;42.95;82.64;;
66888;Laerm;53798;51.680;5.976;2022-12-10T09:23:58;66.63;37.82;80.49;;
66888;Laerm;53798;51.680;5.976;2022-12-10T09:26:26;69.17;37.78;80.43;;
66888;Laerm;53798;51.680;5.976;2022-12-10T09:28:53;66.43;38.51;79.91;;
66888;Laerm;53798;51.680;5.976;2022-12-10T09:31:21;67.16;38.12;81.84;;
66888;Laerm;53798;51.680;5.976;2022-12-10T09:33:51;67.57;39.23;81.54;;
66888;Laerm;53798;51.680;5.976;2022-12-10T09:36:20;70.30;46.95;83.69;;
66888;Laerm;53798;51.680;5.976;2022-12-10T09:38:49;68.44;40.08;81.48;;
66888;Laerm;53798;51.680;5.976;2022-12-10T09:42:13;71.50;47.96;81.34;;
66888;Laerm;53798;51.680;5.976;2022-12-10T09:45:04;69.41;47.26;79.99;;
66888;Laerm;53798;51.680;5.976;2022-12-10T09:47:46;66.74;38.58;81.93;;
66888;Laerm;53798;51.680;5.976;2022-12-10T09:50:32;69.54;41.10;84.54;;
66888;Laerm;53798;51.680;5.976;2022-12-10T09:53:02;66.78;40.59;79.66;;
66888;Laerm;53798;51.680;5.976;2022-12-10T09:55:38;69.31;42.47;79.57;;
66888;Laerm;53798;51.680;5.976;2022-12-10T09:58:18;71.88;40.95;85.54;;
66888;Laerm;53798;51.680;5.976;2022-12-10T10:01:02;71.16;42.36;82.71;;
66888;Laerm;53798;51.680;5.976;2022-12-10T10:03:40;70.06;40.62;84.11;;
66888;Laerm;53798;51.680;5.976;2022-12-10T10:06:12;68.69;40.70;83.28;;
66888;Laerm;53798;51.680;5.976;2022-12-10T10:08:47;71.05;48.13;84.76;;
66888;Laerm;53798;51.680;5.976;2022-12-10T10:11:24;70.23;45.19;81.99;;
66888;Laerm;53798;51.680;5.976;2022-12-10T10:13:53;67.54;41.87;79.98;;
66888;Laerm;53798;51.680;5.976;2022-12-10T10:17:01;69.72;45.28;84.52;;
66888;Laerm;53798;51.680;5.976;2022-12-10T10:19:34;70.72;38.67;81.64;;
66888;Laerm;53798;51.680;5.976;2022-12-10T10:22:04;70.22;38.05;80.93;;
66888;Laerm;53798;51.680;5.976;2022-12-10T10:24:42;67.89;40.24;79.63;;
66888;Laerm;53798;51.680;5.976;2022-12-10T10:27:20;68.12;40.11;82.22;;
66888;Laerm;53798;51.680;5.976;2022-12-10T10:29:52;71.44;42.33;84.37;;
66888;Laerm;53798;51.680;5.976;2022-12-10T10:32:46;68.65;39.19;83.26;;
66888;Laerm;53798;51.680;5.976;2022-12-10T10:35:34;71.36;47.36;82.11;;
66888;Laerm;53798;51.680;5.976;2022-12-10T10:38:19;70.81;46.53;81.68;;
66888;Laerm;53798;51.680;5.976;2022-12-10T10:41:05;70.25;47.99;79.75;;
66888;Laerm;53798;51.680;5.976;2022-12-10T10:43:40;66.83;40.23;79.81;;
66888;Laerm;53798;51.680;5.976;2022-12-10T10:46:22;69.74;44.69;81.40;;
66888;Laerm;53798;51.680;5.976;2022-12-10T10:48:50;68.47;43.63;79.45;;
66888;Laerm;53798;51.680;5.976;2022-12-10T10:51:21;71.50;49.61;81.66;;
66888;Laerm;53798;51.680;5.976;2022-12-10T10:53:52;70.99;47.76;81.93;;
66888;Laerm;53798;51.680;5.976;2022-12-10T10:56:28;69.94;40.23;81.95;;
66888;Laerm;53798;51.680;5.976;2022-12-10T10:59:31;66.33;40.22;77.27;;
66888;Laerm;53798;51.680;5.976;2022-12-10T11:02:35;69.02;41.08;81.57;;
66888;Laerm;53798;51.680;5.976;2022-12-10T11:05:22;70.64;47.24;82.86;;
66888;Laerm;53798;51.680;5.976;2022-12-10T11:08:00;68.15;41.02;79.76;;
66888;Laerm;53798;51.680;5.976;2022-12-10T11:10:30;70.15;40.73;84.08;;
66888;Laerm;53798;51.680;5.976;2022-12-10T11:13:23;70.41;41.85;82.30;;
66888;Laerm;53798;51.680;5.976;2022-12-10T11:19:03;68.70;42.32;82.23;;
66888;Laerm;53798;51.680;5.976;2022-12-10T11:21:33;68.96;45.75;81.07;;
66888;Laerm;53798;51.680;5.976;2022-12-10T11:24:10;70.61;50.65;84.86;;
66888;Laerm;53798;51.680;5.976;2022-12-10T11:27:04;69.40;41.38;80.54;;
66888;Laerm;53798;51.680;5.976;2022-12-10T11:30:06;68.12;44.13;83.05;;
66888;Laerm;53798;51.680;5.976;2022-12-10T11:35:47;69.58;45.33;82.57;;
66888;Laerm;53798;51.680;5.976;2022-12-10T11:38:36;69.38;44.46;81.17;;
66888;Laerm;53798;51.680;5.976;2022-12-10T11:44:58;70.77;44.00;82.64;;
66888;Laerm;53798;51.680;5.976;2022-12-10T11:47:50;70.56;39.96;89.26;;
66888;Laerm;53798;51.680;5.976;2022-12-10T11:50:40;68.98;42.67;80.53;;
66888;Laerm;53798;51.680;5.976;2022-12-10T11:53:24;66.79;37.91;79.42;;
66888;Laerm;53798;51.680;5.976;2022-12-10T11:59:29;71.30;42.77;82.17;;
66888;Laerm;53798;51.680;5.976;2022-12-10T12:02:43;68.20;40.84;81.30;;
66888;Laerm;53798;51.680;5.976;2022-12-10T12:05:48;71.13;47.21;83.30;;
66888;Laerm;53798;51.680;5.976;2022-12-10T12:14:55;71.76;45.36;86.28;;
66888;Laerm;53798;51.680;5.976;2022-12-10T12:17:32;70.50;40.19;82.13;;
66888;Laerm;53798;51.680;5.976;2022-12-10T12:20:25;70.41;47.98;81.87;;
66888;Laerm;53798;51.680;5.976;2022-12-10T12:23:04;70.69;43.98;81.95;;
66888;Laerm;53798;51.680;5.976;2022-12-10T12:25:46;70.09;42.00;82.63;;
66888;Laerm;53798;51.680;5.976;2022-12-10T12:28:24;72.01;46.63;87.77;;
66888;Laerm;53798;51.680;5.976;2022-12-10T12:31:03;70.19;45.76;82.32;;
66888;Laerm;53798;51.680;5.976;2022-12-10T12:33:47;71.75;45.05;82.58;;
66888;Laerm;53798;51.680;5.976;2022-12-10T12:36:22;67.47;38.19;83.57;;
66888;Laerm;53798;51.680;5.976;2022-12-10T12:38:59;72.62;40.83;94.80;;
66888;Laerm;53798;51.680;5.976;2022-12-10T12:50:50;68.88;38.77;81.64;;
66888;Laerm;53798;51.680;5.976;2022-12-10T12:53:22;68.71;39.00;80.49;;
66888;Laerm;53798;51.680;5.976;2022-12-10T12:56:23;69.83;36.97;81.19;;
66888;Laerm;53798;51.680;5.976;2022-12-10T13:01:54;70.78;41.99;82.17;;
66888;Laerm;53798;51.680;5.976;2022-12-10T13:04:26;72.28;47.12;84.06;;
66888;Laerm;53798;51.680;5.976;2022-12-10T13:12:48;71.09;50.69;82.66;;
66888;Laerm;53798;51.680;5.976;2022-12-10T13:20:35;67.73;37.27;79.92;;
66888;Laerm;53798;51.680;5.976;2022-12-10T13:31:20;71.23;39.80;80.96;;
66888;Laerm;53798;51.680;5.976;2022-12-10T13:37:03;70.54;38.20;83.57;;
66888;Laerm;53798;51.680;5.976;2022-12-10T13:45:04;70.65;43.45;82.84;;
66888;Laerm;53798;51.680;5.976;2022-12-10T13:51:09;69.30;37.73;83.14;;
66888;Laerm;53798;51.680;5.976;2022-12-10T13:54:07;69.05;47.21;80.20;;
66888;Laerm;53798;51.680;5.976;2022-12-10T14:00:10;69.06;37.09;82.36;;
66888;Laerm;53798;51.680;5.976;2022-12-10T14:06:25;71.76;46.78;81.61;;
66888;Laerm;53798;51.680;5.976;2022-12-10T14:11:48;68.69;47.65;81.87;;
66888;Laerm;53798;51.680;5.976;2022-12-10T14:14:30;71.69;37.41;86.66;;
66888;Laerm;53798;51.680;5.976;2022-12-10T14:17:04;66.56;36.67;80.34;;
66888;Laerm;53798;51.680;5.976;2022-12-10T14:19:34;70.89;45.94;82.68;;
66888;Laerm;53798;51.680;5.976;2022-12-10T14:22:16;69.82;39.56;82.06;;
66888;Laerm;53798;51.680;5.976;2022-12-10T14:24:49;72.00;42.74;88.88;;
66888;Laerm;53798;51.680;5.976;2022-12-10T14:27:26;70.42;39.46;83.32;;
66888;Laerm;53798;51.680;5.976;2022-12-10T14:30:02;69.46;39.02;80.47;;
66888;Laerm;53798;51.680;5.976;2022-12-10T14:32:37;68.36;39.04;81.42;;
66888;Laerm;53798;51.680;5.976;2022-12-10T14:35:13;70.76;37.80;81.68;;
66888;Laerm;53798;51.680;5.976;2022-12-10T14:37:52;70.61;42.69;83.79;;
66888;Laerm;53798;51.680;5.976;2022-12-10T14:40:35;69.90;40.88;85.16;;
66888;Laerm;53798;51.680;5.976;2022-12-10T14:45:59;68.81;43.49;82.71;;
66888;Laerm;53798;51.680;5.976;2022-12-10T14:48:27;70.40;46.84;82.20;;
66888;Laerm;53798;51.680;5.976;2022-12-10T14:51:04;67.91;42.23;78.54;;
66888;Laerm;53798;51.680;5.976;2022-12-10T14:53:31;69.72;46.59;80.38;;
66888;Laerm;53798;51.680;5.976;2022-12-10T14:56:03;67.73;35.65;84.43;;
66888;Laerm;53798;51.680;5.976;2022-12-10T14:58:42;69.90;37.24;84.96;;
66888;Laerm;53798;51.680;5.976;2022-12-10T15:01:26;70.17;43.79;82.81;;
66888;Laerm;53798;51.680;5.976;2022-12-10T15:03:57;68.04;37.34;80.85;;
66888;Laerm;53798;51.680;5.976;2022-12-10T15:06:27;68.15;37.00;82.15;;
66888;Laerm;53798;51.680;5.976;2022-12-10T15:08:57;65.97;36.51;78.30;;
66888;Laerm;53798;51.680;5.976;2022-12-10T15:11:27;70.68;45.17;81.28;;
66888;Laerm;53798;51.680;5.976;2022-12-10T15:13:59;71.42;45.29;86.10;;
66888;Laerm;53798;51.680;5.976;2022-12-10T15:19:20;66.87;35.55;78.39;;
66888;Laerm;53798;51.680;5.976;2022-12-10T15:21:50;68.08;35.74;83.88;;
66888;Laerm;53798;51.680;5.976;2022-12-10T15:26:55;68.49;36.16;80.39;;
66888;Laerm;53798;51.680;5.976;2022-12-10T15:32:01;70.50;40.84;83.51;;
66888;Laerm;53798;51.680;5.976;2022-12-10T15:34:39;68.46;35.98;83.66;;
66888;Laerm;53798;51.680;5.976;2022-12-10T15:37:19;70.21;36.49;85.72;;
66888;Laerm;53798;51.680;5.976;2022-12-10T15:39:53;69.00;36.97;81.83;;
66888;Laerm;53798;51.680;5.976;2022-12-10T15:42:40;69.80;41.67;82.67;;
66888;Laerm;53798;51.680;5.976;2022-12-10T15:47:43;70.32;36.07;85.86;;
66888;Laerm;53798;51.680;5.976;2022-12-10T15:50:10;67.28;35.01;79.75;;
66888;Laerm;53798;51.680;5.976;2022-12-10T15:52:38;68.53;38.95;83.39;;
66888;Laerm;53798;51.680;5.976;2022-12-10T15:55:06;69.27;36.41;81.07;;
66888;Laerm;53798;51.680;5.976;2022-12-10T15:57:37;68.46;44.14;79.60;;
66888;Laerm;53798;51.680;5.976;2022-12-10T16:00:18;68.79;42.26;80.18;;